sensor_id;sensor_type;location;lat;lon;timestamp;P1;durP1;ratioP1;P2;durP2;ratioP2
72369;SDS011;60343;-32.030;115.880;2023-07-13T00:02:26;10.02;;;1.58;;
72369;SDS011;60343;-32.030;115.880;2023-07-13T00:05:02;14.05;;;1.52;;
72369;SDS011;60343;-32.030;115.880;2023-07-13T00:07:37;15.40;;;1.63;;
72369;SDS011;60343;-32.030;115.880;2023-07-13T00:10:18;12.65;;;1.52;;
72369;SDS011;60343;-32.030;115.880;2023-07-13T00:12:54;11.88;;;1.42;;
72369;SDS011;60343;-32.030;115.880;2023-07-13T00:15:30;12.77;;;1.23;;
72369;SDS011;60343;-32.030;115.880;2023-07-13T00:18:05;14.48;;;1.48;;
72369;SDS011;60343;-32.030;115.880;2023-07-13T00:20:40;10.40;;;1.17;;
72369;SDS011;60343;-32.030;115.880;2023-07-13T00:23:16;9.23;;;1.30;;
72369;SDS011;60343;-32.030;115.880;2023-07-13T00:25:57;11.75;;;1.23;;
72369;SDS011;60343;-32.030;115.880;2023-07-13T00:28:32;15.30;;;1.20;;
72369;SDS011;60343;-32.030;115.880;2023-07-13T00:31:09;9.10;;;1.50;;
72369;SDS011;60343;-32.030;115.880;2023-07-13T00:33:45;13.63;;;1.20;;
72369;SDS011;60343;-32.030;115.880;2023-07-13T00:36:20;10.65;;;1.08;;
72369;SDS011;60343;-32.030;115.880;2023-07-13T00:38:55;8.85;;;0.98;;
72369;SDS011;60343;-32.030;115.880;2023-07-13T00:41:37;13.23;;;1.30;;
72369;SDS011;60343;-32.030;115.880;2023-07-13T00:44:13;15.18;;;1.77;;
72369;SDS011;60343;-32.030;115.880;2023-07-13T00:46:49;13.38;;;1.10;;
72369;SDS011;60343;-32.030;115.880;2023-07-13T00:49:27;12.90;;;1.67;;
72369;SDS011;60343;-32.030;115.880;2023-07-13T00:52:06;12.18;;;1.52;;
72369;SDS011;60343;-32.030;115.880;2023-07-13T00:54:43;17.20;;;1.92;;
72369;SDS011;60343;-32.030;115.880;2023-07-13T00:57:26;20.15;;;1.95;;
72369;SDS011;60343;-32.030;115.880;2023-07-13T01:00:03;16.98;;;1.60;;
72369;SDS011;60343;-32.030;115.880;2023-07-13T01:02:41;11.98;;;1.58;;
72369;SDS011;60343;-32.030;115.880;2023-07-13T01:05:19;20.23;;;1.85;;
72369;SDS011;60343;-32.030;115.880;2023-07-13T01:07:58;19.33;;;2.47;;
72369;SDS011;60343;-32.030;115.880;2023-07-13T01:10:34;15.80;;;1.77;;
72369;SDS011;60343;-32.030;115.880;2023-07-13T01:13:17;15.00;;;2.53;;
72369;SDS011;60343;-32.030;115.880;2023-07-13T01:15:53;13.52;;;1.88;;
72369;SDS011;60343;-32.030;115.880;2023-07-13T01:18:30;12.52;;;1.98;;
72369;SDS011;60343;-32.030;115.880;2023-07-13T01:21:12;14.15;;;2.13;;
72369;SDS011;60343;-32.030;115.880;2023-07-13T01:23:47;16.45;;;2.45;;
72369;SDS011;60343;-32.030;115.880;2023-07-13T01:26:22;14.68;;;1.75;;
72369;SDS011;60343;-32.030;115.880;2023-07-13T01:28:57;24.02;;;2.45;;
72369;SDS011;60343;-32.030;115.880;2023-07-13T01:31:33;18.63;;;2.35;;
72369;SDS011;60343;-32.030;115.880;2023-07-13T01:34:10;19.65;;;1.80;;
72369;SDS011;60343;-32.030;115.880;2023-07-13T01:36:52;17.77;;;1.85;;
72369;SDS011;60343;-32.030;115.880;2023-07-13T01:39:27;21.85;;;2.13;;
72369;SDS011;60343;-32.030;115.880;2023-07-13T01:42:03;17.58;;;1.90;;
72369;SDS011;60343;-32.030;115.880;2023-07-13T01:44:38;18.25;;;2.65;;
72369;SDS011;60343;-32.030;115.880;2023-07-13T01:47:14;23.90;;;1.92;;
72369;SDS011;60343;-32.030;115.880;2023-07-13T01:49:49;18.80;;;2.53;;
72369;SDS011;60343;-32.030;115.880;2023-07-13T01:52:30;18.33;;;2.00;;
72369;SDS011;60343;-32.030;115.880;2023-07-13T01:55:06;24.67;;;2.33;;
72369;SDS011;60343;-32.030;115.880;2023-07-13T01:57:42;17.88;;;2.58;;
72369;SDS011;60343;-32.030;115.880;2023-07-13T02:00:17;25.48;;;2.22;;
72369;SDS011;60343;-32.030;115.880;2023-07-13T02:02:53;15.48;;;1.70;;
72369;SDS011;60343;-32.030;115.880;2023-07-13T02:05:28;16.73;;;2.40;;
72369;SDS011;60343;-32.030;115.880;2023-07-13T02:08:09;23.60;;;2.60;;
72369;SDS011;60343;-32.030;115.880;2023-07-13T02:10:45;23.45;;;2.30;;
72369;SDS011;60343;-32.030;115.880;2023-07-13T02:13:20;20.85;;;2.33;;
72369;SDS011;60343;-32.030;115.880;2023-07-13T02:15:56;14.70;;;1.75;;
72369;SDS011;60343;-32.030;115.880;2023-07-13T02:18:31;20.75;;;2.20;;
72369;SDS011;60343;-32.030;115.880;2023-07-13T02:21:06;16.02;;;2.40;;
72369;SDS011;60343;-32.030;115.880;2023-07-13T02:23:47;23.15;;;2.20;;
72369;SDS011;60343;-32.030;115.880;2023-07-13T02:26:23;20.80;;;3.20;;
72369;SDS011;60343;-32.030;115.880;2023-07-13T02:28:59;15.07;;;1.92;;
72369;SDS011;60343;-32.030;115.880;2023-07-13T02:31:34;19.38;;;2.03;;
72369;SDS011;60343;-32.030;115.880;2023-07-13T02:34:09;16.35;;;2.03;;
72369;SDS011;60343;-32.030;115.880;2023-07-13T02:36:45;17.30;;;1.88;;
72369;SDS011;60343;-32.030;115.880;2023-07-13T02:39:26;16.70;;;2.08;;
72369;SDS011;60343;-32.030;115.880;2023-07-13T02:42:01;15.65;;;1.70;;
72369;SDS011;60343;-32.030;115.880;2023-07-13T02:44:37;15.88;;;1.83;;
72369;SDS011;60343;-32.030;115.880;2023-07-13T02:47:12;19.40;;;1.90;;
72369;SDS011;60343;-32.030;115.880;2023-07-13T02:49:48;18.67;;;1.80;;
72369;SDS011;60343;-32.030;115.880;2023-07-13T02:52:23;15.45;;;1.83;;
72369;SDS011;60343;-32.030;115.880;2023-07-13T02:55:04;16.98;;;1.55;;
72369;SDS011;60343;-32.030;115.880;2023-07-13T02:57:40;14.77;;;1.45;;
72369;SDS011;60343;-32.030;115.880;2023-07-13T03:00:16;15.55;;;2.00;;
72369;SDS011;60343;-32.030;115.880;2023-07-13T03:02:51;14.00;;;1.40;;
72369;SDS011;60343;-32.030;115.880;2023-07-13T03:05:26;12.13;;;1.40;;
72369;SDS011;60343;-32.030;115.880;2023-07-13T03:08:02;15.88;;;1.58;;
72369;SDS011;60343;-32.030;115.880;2023-07-13T03:10:43;13.65;;;1.48;;
72369;SDS011;60343;-32.030;115.880;2023-07-13T03:13:18;10.15;;;1.27;;
72369;SDS011;60343;-32.030;115.880;2023-07-13T03:15:53;12.50;;;1.55;;
72369;SDS011;60343;-32.030;115.880;2023-07-13T03:18:29;11.27;;;1.45;;
72369;SDS011;60343;-32.030;115.880;2023-07-13T03:21:04;13.43;;;1.50;;
72369;SDS011;60343;-32.030;115.880;2023-07-13T03:23:40;10.77;;;1.25;;
72369;SDS011;60343;-32.030;115.880;2023-07-13T03:26:21;13.90;;;1.30;;
72369;SDS011;60343;-32.030;115.880;2023-07-13T03:28:56;11.98;;;1.50;;
72369;SDS011;60343;-32.030;115.880;2023-07-13T03:31:32;14.00;;;1.52;;
72369;SDS011;60343;-32.030;115.880;2023-07-13T03:34:09;12.73;;;1.60;;
72369;SDS011;60343;-32.030;115.880;2023-07-13T03:36:44;13.40;;;1.30;;
72369;SDS011;60343;-32.030;115.880;2023-07-13T03:39:19;12.77;;;1.50;;
72369;SDS011;60343;-32.030;115.880;2023-07-13T03:42:01;14.02;;;1.48;;
72369;SDS011;60343;-32.030;115.880;2023-07-13T03:44:36;10.38;;;1.40;;
72369;SDS011;60343;-32.030;115.880;2023-07-13T03:47:18;18.50;;;1.77;;
72369;SDS011;60343;-32.030;115.880;2023-07-13T03:49:53;12.60;;;1.63;;
72369;SDS011;60343;-32.030;115.880;2023-07-13T03:52:29;13.32;;;1.60;;
72369;SDS011;60343;-32.030;115.880;2023-07-13T03:55:05;9.50;;;1.45;;
72369;SDS011;60343;-32.030;115.880;2023-07-13T03:57:46;9.80;;;0.98;;
72369;SDS011;60343;-32.030;115.880;2023-07-13T04:00:25;11.25;;;1.75;;
72369;SDS011;60343;-32.030;115.880;2023-07-13T04:03:01;7.50;;;1.13;;
72369;SDS011;60343;-32.030;115.880;2023-07-13T04:05:36;10.43;;;0.98;;
72369;SDS011;60343;-32.030;115.880;2023-07-13T04:08:13;14.80;;;1.42;;
72369;SDS011;60343;-32.030;115.880;2023-07-13T04:10:48;13.07;;;1.38;;
72369;SDS011;60343;-32.030;115.880;2023-07-13T04:13:29;11.20;;;1.50;;
72369;SDS011;60343;-32.030;115.880;2023-07-13T04:16:05;11.40;;;1.15;;
72369;SDS011;60343;-32.030;115.880;2023-07-13T04:18:40;10.52;;;1.10;;
72369;SDS011;60343;-32.030;115.880;2023-07-13T04:21:15;10.10;;;1.65;;
72369;SDS011;60343;-32.030;115.880;2023-07-13T04:23:51;8.98;;;1.20;;
72369;SDS011;60343;-32.030;115.880;2023-07-13T04:26:26;9.85;;;1.10;;
72369;SDS011;60343;-32.030;115.880;2023-07-13T04:29:08;8.73;;;1.30;;
72369;SDS011;60343;-32.030;115.880;2023-07-13T04:31:43;16.20;;;1.50;;
72369;SDS011;60343;-32.030;115.880;2023-07-13T04:34:19;10.07;;;1.20;;
72369;SDS011;60343;-32.030;115.880;2023-07-13T04:36:54;11.60;;;1.27;;
72369;SDS011;60343;-32.030;115.880;2023-07-13T04:39:30;14.95;;;1.58;;
72369;SDS011;60343;-32.030;115.880;2023-07-13T04:42:07;12.30;;;1.35;;
72369;SDS011;60343;-32.030;115.880;2023-07-13T04:44:53;12.18;;;1.08;;
72369;SDS011;60343;-32.030;115.880;2023-07-13T04:47:30;10.15;;;1.48;;
72369;SDS011;60343;-32.030;115.880;2023-07-13T04:50:06;12.10;;;1.38;;
72369;SDS011;60343;-32.030;115.880;2023-07-13T04:52:46;9.15;;;1.52;;
72369;SDS011;60343;-32.030;115.880;2023-07-13T04:55:21;9.82;;;1.20;;
72369;SDS011;60343;-32.030;115.880;2023-07-13T04:57:57;8.90;;;1.17;;
72369;SDS011;60343;-32.030;115.880;2023-07-13T05:00:38;8.07;;;1.15;;
72369;SDS011;60343;-32.030;115.880;2023-07-13T05:03:13;12.05;;;1.20;;
72369;SDS011;60343;-32.030;115.880;2023-07-13T05:05:58;12.02;;;1.27;;
72369;SDS011;60343;-32.030;115.880;2023-07-13T05:08:36;16.00;;;1.30;;
72369;SDS011;60343;-32.030;115.880;2023-07-13T05:11:11;13.25;;;1.40;;
72369;SDS011;60343;-32.030;115.880;2023-07-13T05:13:46;8.95;;;0.90;;
72369;SDS011;60343;-32.030;115.880;2023-07-13T05:16:27;12.00;;;1.45;;
72369;SDS011;60343;-32.030;115.880;2023-07-13T05:19:03;10.77;;;1.33;;
72369;SDS011;60343;-32.030;115.880;2023-07-13T05:21:38;11.32;;;1.50;;
72369;SDS011;60343;-32.030;115.880;2023-07-13T05:24:13;12.75;;;1.88;;
72369;SDS011;60343;-32.030;115.880;2023-07-13T05:26:49;10.05;;;1.90;;
72369;SDS011;60343;-32.030;115.880;2023-07-13T05:29:24;11.82;;;1.17;;
72369;SDS011;60343;-32.030;115.880;2023-07-13T05:32:05;9.57;;;1.13;;
72369;SDS011;60343;-32.030;115.880;2023-07-13T05:34:41;7.20;;;0.80;;
72369;SDS011;60343;-32.030;115.880;2023-07-13T05:37:16;12.13;;;1.38;;
72369;SDS011;60343;-32.030;115.880;2023-07-13T05:39:51;13.30;;;1.33;;
72369;SDS011;60343;-32.030;115.880;2023-07-13T05:42:27;9.98;;;1.60;;
72369;SDS011;60343;-32.030;115.880;2023-07-13T05:45:03;12.48;;;1.10;;
72369;SDS011;60343;-32.030;115.880;2023-07-13T05:47:44;12.05;;;1.65;;
72369;SDS011;60343;-32.030;115.880;2023-07-13T05:50:20;12.55;;;1.48;;
72369;SDS011;60343;-32.030;115.880;2023-07-13T05:52:55;14.60;;;1.23;;
72369;SDS011;60343;-32.030;115.880;2023-07-13T05:55:30;13.25;;;1.45;;
72369;SDS011;60343;-32.030;115.880;2023-07-13T05:58:06;17.20;;;1.45;;
72369;SDS011;60343;-32.030;115.880;2023-07-13T06:00:41;9.90;;;0.98;;
72369;SDS011;60343;-32.030;115.880;2023-07-13T06:03:23;11.43;;;1.63;;
72369;SDS011;60343;-32.030;115.880;2023-07-13T06:05:58;11.93;;;1.63;;
72369;SDS011;60343;-32.030;115.880;2023-07-13T06:08:33;8.18;;;1.25;;
72369;SDS011;60343;-32.030;115.880;2023-07-13T06:11:12;9.95;;;1.30;;
72369;SDS011;60343;-32.030;115.880;2023-07-13T06:13:50;12.63;;;1.15;;
72369;SDS011;60343;-32.030;115.880;2023-07-13T06:16:25;11.63;;;1.63;;
72369;SDS011;60343;-32.030;115.880;2023-07-13T06:19:06;9.65;;;1.40;;
72369;SDS011;60343;-32.030;115.880;2023-07-13T06:21:42;10.20;;;1.25;;
72369;SDS011;60343;-32.030;115.880;2023-07-13T06:24:17;7.05;;;0.90;;
72369;SDS011;60343;-32.030;115.880;2023-07-13T06:26:52;10.27;;;1.00;;
72369;SDS011;60343;-32.030;115.880;2023-07-13T06:29:28;10.68;;;1.15;;
72369;SDS011;60343;-32.030;115.880;2023-07-13T06:32:04;8.20;;;1.10;;
72369;SDS011;60343;-32.030;115.880;2023-07-13T06:34:46;12.82;;;1.23;;
72369;SDS011;60343;-32.030;115.880;2023-07-13T06:37:21;11.95;;;1.35;;
72369;SDS011;60343;-32.030;115.880;2023-07-13T06:39:56;8.73;;;1.15;;
72369;SDS011;60343;-32.030;115.880;2023-07-13T06:42:32;12.50;;;1.45;;
72369;SDS011;60343;-32.030;115.880;2023-07-13T06:45:07;10.80;;;1.05;;
72369;SDS011;60343;-32.030;115.880;2023-07-13T06:47:43;8.20;;;1.00;;
72369;SDS011;60343;-32.030;115.880;2023-07-13T06:50:24;10.70;;;1.45;;
72369;SDS011;60343;-32.030;115.880;2023-07-13T06:53:00;12.85;;;1.40;;
72369;SDS011;60343;-32.030;115.880;2023-07-13T06:55:35;9.43;;;1.10;;
72369;SDS011;60343;-32.030;115.880;2023-07-13T06:58:11;9.18;;;1.33;;
72369;SDS011;60343;-32.030;115.880;2023-07-13T07:00:49;6.30;;;0.70;;
72369;SDS011;60343;-32.030;115.880;2023-07-13T07:03:25;11.63;;;1.33;;
72369;SDS011;60343;-32.030;115.880;2023-07-13T07:06:09;11.63;;;0.98;;
72369;SDS011;60343;-32.030;115.880;2023-07-13T07:08:49;14.02;;;1.52;;
72369;SDS011;60343;-32.030;115.880;2023-07-13T07:11:25;11.60;;;1.13;;
72369;SDS011;60343;-32.030;115.880;2023-07-13T07:14:00;11.45;;;1.27;;
72369;SDS011;60343;-32.030;115.880;2023-07-13T07:16:36;10.23;;;1.15;;
72369;SDS011;60343;-32.030;115.880;2023-07-13T07:19:11;10.73;;;1.40;;
72369;SDS011;60343;-32.030;115.880;2023-07-13T07:21:52;10.20;;;1.20;;
72369;SDS011;60343;-32.030;115.880;2023-07-13T07:24:28;10.68;;;1.08;;
72369;SDS011;60343;-32.030;115.880;2023-07-13T07:27:03;8.85;;;1.00;;
72369;SDS011;60343;-32.030;115.880;2023-07-13T07:29:39;9.00;;;0.80;;
72369;SDS011;60343;-32.030;115.880;2023-07-13T07:32:14;11.85;;;1.20;;
72369;SDS011;60343;-32.030;115.880;2023-07-13T07:34:49;7.85;;;1.17;;
72369;SDS011;60343;-32.030;115.880;2023-07-13T07:37:31;9.32;;;1.30;;
72369;SDS011;60343;-32.030;115.880;2023-07-13T07:40:07;10.85;;;1.02;;
72369;SDS011;60343;-32.030;115.880;2023-07-13T07:42:42;12.13;;;1.27;;
72369;SDS011;60343;-32.030;115.880;2023-07-13T07:45:18;10.63;;;0.95;;
72369;SDS011;60343;-32.030;115.880;2023-07-13T07:47:54;10.30;;;1.20;;
72369;SDS011;60343;-32.030;115.880;2023-07-13T07:50:29;12.63;;;1.25;;
72369;SDS011;60343;-32.030;115.880;2023-07-13T07:53:11;8.98;;;1.10;;
72369;SDS011;60343;-32.030;115.880;2023-07-13T07:55:46;13.55;;;1.60;;
72369;SDS011;60343;-32.030;115.880;2023-07-13T07:58:22;9.48;;;1.13;;
72369;SDS011;60343;-32.030;115.880;2023-07-13T08:01:02;8.80;;;0.95;;
72369;SDS011;60343;-32.030;115.880;2023-07-13T08:03:38;12.88;;;1.10;;
72369;SDS011;60343;-32.030;115.880;2023-07-13T08:06:13;13.55;;;1.67;;
72369;SDS011;60343;-32.030;115.880;2023-07-13T08:08:55;10.35;;;1.50;;
72369;SDS011;60343;-32.030;115.880;2023-07-13T08:11:32;12.43;;;1.45;;
72369;SDS011;60343;-32.030;115.880;2023-07-13T08:14:07;10.07;;;1.20;;
72369;SDS011;60343;-32.030;115.880;2023-07-13T08:16:43;11.88;;;1.02;;
72369;SDS011;60343;-32.030;115.880;2023-07-13T08:19:18;10.38;;;1.02;;
72369;SDS011;60343;-32.030;115.880;2023-07-13T08:21:53;10.35;;;1.05;;
72369;SDS011;60343;-32.030;115.880;2023-07-13T08:24:34;16.63;;;1.42;;
72369;SDS011;60343;-32.030;115.880;2023-07-13T08:27:10;11.77;;;1.10;;
72369;SDS011;60343;-32.030;115.880;2023-07-13T08:29:47;11.05;;;1.05;;
72369;SDS011;60343;-32.030;115.880;2023-07-13T08:32:23;8.73;;;1.08;;
72369;SDS011;60343;-32.030;115.880;2023-07-13T08:34:58;12.48;;;1.42;;
72369;SDS011;60343;-32.030;115.880;2023-07-13T08:37:34;9.60;;;0.90;;
72369;SDS011;60343;-32.030;115.880;2023-07-13T08:40:15;9.10;;;1.00;;
72369;SDS011;60343;-32.030;115.880;2023-07-13T08:42:53;9.13;;;1.08;;
72369;SDS011;60343;-32.030;115.880;2023-07-13T08:45:38;10.23;;;1.08;;
72369;SDS011;60343;-32.030;115.880;2023-07-13T08:48:18;13.80;;;0.93;;
72369;SDS011;60343;-32.030;115.880;2023-07-13T08:51:00;11.65;;;0.95;;
72369;SDS011;60343;-32.030;115.880;2023-07-13T08:53:45;9.27;;;1.10;;
72369;SDS011;60343;-32.030;115.880;2023-07-13T08:56:33;10.15;;;1.08;;
72369;SDS011;60343;-32.030;115.880;2023-07-13T08:59:10;9.75;;;0.90;;
72369;SDS011;60343;-32.030;115.880;2023-07-13T09:01:53;5.45;;;0.70;;
72369;SDS011;60343;-32.030;115.880;2023-07-13T09:04:49;5.38;;;0.70;;
72369;SDS011;60343;-32.030;115.880;2023-07-13T09:07:31;7.10;;;0.70;;
72369;SDS011;60343;-32.030;115.880;2023-07-13T09:10:16;10.35;;;0.88;;
72369;SDS011;60343;-32.030;115.880;2023-07-13T09:15:59;7.03;;;0.65;;
72369;SDS011;60343;-32.030;115.880;2023-07-13T09:18:37;7.97;;;0.88;;
72369;SDS011;60343;-32.030;115.880;2023-07-13T09:21:17;10.35;;;1.20;;
72369;SDS011;60343;-32.030;115.880;2023-07-13T09:23:56;9.02;;;0.88;;
72369;SDS011;60343;-32.030;115.880;2023-07-13T09:26:34;10.45;;;0.90;;
72369;SDS011;60343;-32.030;115.880;2023-07-13T09:29:17;7.75;;;0.93;;
72369;SDS011;60343;-32.030;115.880;2023-07-13T09:32:00;10.80;;;1.38;;
72369;SDS011;60343;-32.030;115.880;2023-07-13T09:34:37;6.00;;;1.02;;
72369;SDS011;60343;-32.030;115.880;2023-07-13T09:37:12;8.43;;;1.10;;
72369;SDS011;60343;-32.030;115.880;2023-07-13T09:39:48;11.80;;;1.30;;
72369;SDS011;60343;-32.030;115.880;2023-07-13T09:42:25;10.57;;;1.08;;
72369;SDS011;60343;-32.030;115.880;2023-07-13T09:45:07;7.60;;;0.90;;
72369;SDS011;60343;-32.030;115.880;2023-07-13T09:47:42;12.05;;;1.30;;
72369;SDS011;60343;-32.030;115.880;2023-07-13T09:50:18;11.77;;;1.10;;
72369;SDS011;60343;-32.030;115.880;2023-07-13T09:52:53;14.40;;;1.08;;
72369;SDS011;60343;-32.030;115.880;2023-07-13T09:55:30;8.93;;;0.82;;
72369;SDS011;60343;-32.030;115.880;2023-07-13T09:58:11;12.75;;;1.00;;
72369;SDS011;60343;-32.030;115.880;2023-07-13T10:03:52;6.75;;;0.80;;
72369;SDS011;60343;-32.030;115.880;2023-07-13T10:06:27;9.20;;;1.08;;
72369;SDS011;60343;-32.030;115.880;2023-07-13T10:09:03;8.13;;;0.90;;
72369;SDS011;60343;-32.030;115.880;2023-07-13T10:11:43;10.80;;;1.08;;
72369;SDS011;60343;-32.030;115.880;2023-07-13T10:14:20;8.38;;;1.08;;
72369;SDS011;60343;-32.030;115.880;2023-07-13T10:17:03;13.57;;;1.38;;
72369;SDS011;60343;-32.030;115.880;2023-07-13T10:19:43;6.35;;;0.82;;
72369;SDS011;60343;-32.030;115.880;2023-07-13T10:22:22;7.32;;;1.00;;
72369;SDS011;60343;-32.030;115.880;2023-07-13T10:25:01;8.82;;;0.80;;
72369;SDS011;60343;-32.030;115.880;2023-07-13T10:27:42;6.05;;;0.75;;
72369;SDS011;60343;-32.030;115.880;2023-07-13T10:30:20;10.32;;;0.95;;
72369;SDS011;60343;-32.030;115.880;2023-07-13T10:33:04;7.32;;;0.90;;
72369;SDS011;60343;-32.030;115.880;2023-07-13T10:35:44;7.72;;;1.10;;
72369;SDS011;60343;-32.030;115.880;2023-07-13T10:38:21;9.48;;;0.93;;
72369;SDS011;60343;-32.030;115.880;2023-07-13T10:40:58;11.10;;;1.15;;
72369;SDS011;60343;-32.030;115.880;2023-07-13T10:43:39;6.50;;;1.05;;
72369;SDS011;60343;-32.030;115.880;2023-07-13T10:46:16;6.88;;;0.85;;
72369;SDS011;60343;-32.030;115.880;2023-07-13T10:49:01;7.03;;;0.60;;
72369;SDS011;60343;-32.030;115.880;2023-07-13T10:51:39;7.93;;;1.00;;
72369;SDS011;60343;-32.030;115.880;2023-07-13T10:54:16;10.27;;;0.90;;
72369;SDS011;60343;-32.030;115.880;2023-07-13T10:57:07;11.85;;;1.25;;
72369;SDS011;60343;-32.030;115.880;2023-07-13T11:00:10;4.72;;;0.63;;
72369;SDS011;60343;-32.030;115.880;2023-07-13T11:02:56;11.73;;;0.98;;
72369;SDS011;60343;-32.030;115.880;2023-07-13T11:05:39;8.18;;;0.98;;
72369;SDS011;60343;-32.030;115.880;2023-07-13T11:08:18;5.53;;;0.75;;
72369;SDS011;60343;-32.030;115.880;2023-07-13T11:11:31;9.07;;;0.80;;
72369;SDS011;60343;-32.030;115.880;2023-07-13T11:20:19;10.07;;;0.93;;
72369;SDS011;60343;-32.030;115.880;2023-07-13T11:26:01;6.25;;;0.68;;
72369;SDS011;60343;-32.030;115.880;2023-07-13T11:28:37;13.20;;;1.45;;
72369;SDS011;60343;-32.030;115.880;2023-07-13T11:31:15;7.53;;;0.70;;
72369;SDS011;60343;-32.030;115.880;2023-07-13T11:33:57;7.50;;;0.90;;
72369;SDS011;60343;-32.030;115.880;2023-07-13T11:36:36;9.10;;;0.63;;
72369;SDS011;60343;-32.030;115.880;2023-07-13T11:39:24;5.40;;;0.70;;
72369;SDS011;60343;-32.030;115.880;2023-07-13T11:42:05;8.65;;;0.82;;
72369;SDS011;60343;-32.030;115.880;2023-07-13T11:44:45;11.55;;;1.00;;
72369;SDS011;60343;-32.030;115.880;2023-07-13T11:49:57;5.57;;;0.40;;
72369;SDS011;60343;-32.030;115.880;2023-07-13T11:52:33;7.18;;;0.93;;
72369;SDS011;60343;-32.030;115.880;2023-07-13T11:55:19;7.90;;;1.10;;
72369;SDS011;60343;-32.030;115.880;2023-07-13T11:57:57;6.30;;;0.52;;
72369;SDS011;60343;-32.030;115.880;2023-07-13T12:00:35;6.20;;;1.00;;
72369;SDS011;60343;-32.030;115.880;2023-07-13T12:03:11;10.30;;;0.90;;
72369;SDS011;60343;-32.030;115.880;2023-07-13T12:05:58;6.07;;;0.80;;
72369;SDS011;60343;-32.030;115.880;2023-07-13T12:08:38;7.35;;;0.90;;
72369;SDS011;60343;-32.030;115.880;2023-07-13T12:11:20;6.70;;;0.60;;
72369;SDS011;60343;-32.030;115.880;2023-07-13T12:13:55;8.40;;;0.88;;
72369;SDS011;60343;-32.030;115.880;2023-07-13T12:16:32;7.47;;;0.63;;
72369;SDS011;60343;-32.030;115.880;2023-07-13T12:19:13;6.82;;;0.70;;
72369;SDS011;60343;-32.030;115.880;2023-07-13T12:21:53;7.68;;;0.90;;
72369;SDS011;60343;-32.030;115.880;2023-07-13T12:24:39;14.63;;;1.05;;
72369;SDS011;60343;-32.030;115.880;2023-07-13T12:27:23;8.07;;;1.10;;
72369;SDS011;60343;-32.030;115.880;2023-07-13T12:30:00;7.45;;;0.88;;
72369;SDS011;60343;-32.030;115.880;2023-07-13T12:32:37;6.18;;;0.68;;
72369;SDS011;60343;-32.030;115.880;2023-07-13T12:35:14;7.38;;;0.60;;
72369;SDS011;60343;-32.030;115.880;2023-07-13T12:37:51;5.18;;;0.47;;
72369;SDS011;60343;-32.030;115.880;2023-07-13T12:40:28;6.35;;;0.45;;
72369;SDS011;60343;-32.030;115.880;2023-07-13T12:43:17;5.43;;;1.08;;
72369;SDS011;60343;-32.030;115.880;2023-07-13T12:45:56;2.55;;;0.47;;
72369;SDS011;60343;-32.030;115.880;2023-07-13T12:48:38;3.80;;;0.38;;
72369;SDS011;60343;-32.030;115.880;2023-07-13T12:51:14;5.00;;;0.52;;
72369;SDS011;60343;-32.030;115.880;2023-07-13T12:53:51;1.55;;;0.30;;
72369;SDS011;60343;-32.030;115.880;2023-07-13T12:56:32;5.43;;;0.57;;
72369;SDS011;60343;-32.030;115.880;2023-07-13T12:59:15;6.78;;;1.00;;
72369;SDS011;60343;-32.030;115.880;2023-07-13T13:01:53;3.13;;;0.28;;
72369;SDS011;60343;-32.030;115.880;2023-07-13T13:04:28;4.90;;;0.50;;
72369;SDS011;60343;-32.030;115.880;2023-07-13T13:07:05;4.50;;;0.43;;
72369;SDS011;60343;-32.030;115.880;2023-07-13T13:09:45;3.90;;;0.32;;
72369;SDS011;60343;-32.030;115.880;2023-07-13T13:12:21;5.22;;;0.50;;
72369;SDS011;60343;-32.030;115.880;2023-07-13T13:15:04;4.28;;;0.40;;
72369;SDS011;60343;-32.030;115.880;2023-07-13T13:17:40;6.63;;;0.55;;
72369;SDS011;60343;-32.030;115.880;2023-07-13T13:20:16;9.00;;;0.65;;
72369;SDS011;60343;-32.030;115.880;2023-07-13T13:22:53;4.80;;;0.77;;
72369;SDS011;60343;-32.030;115.880;2023-07-13T13:25:28;3.22;;;0.40;;
72369;SDS011;60343;-32.030;115.880;2023-07-13T13:28:04;3.47;;;0.30;;
72369;SDS011;60343;-32.030;115.880;2023-07-13T13:30:51;6.38;;;0.68;;
72369;SDS011;60343;-32.030;115.880;2023-07-13T13:33:26;5.10;;;0.50;;
72369;SDS011;60343;-32.030;115.880;2023-07-13T13:36:01;4.25;;;0.70;;
72369;SDS011;60343;-32.030;115.880;2023-07-13T13:38:37;5.22;;;0.90;;
72369;SDS011;60343;-32.030;115.880;2023-07-13T13:41:13;5.50;;;0.70;;
72369;SDS011;60343;-32.030;115.880;2023-07-13T13:43:49;4.93;;;0.50;;
72369;SDS011;60343;-32.030;115.880;2023-07-13T13:46:30;5.20;;;0.55;;
72369;SDS011;60343;-32.030;115.880;2023-07-13T13:49:07;4.10;;;0.30;;
72369;SDS011;60343;-32.030;115.880;2023-07-13T13:51:47;3.85;;;0.47;;
72369;SDS011;60343;-32.030;115.880;2023-07-13T13:54:23;5.55;;;0.57;;
72369;SDS011;60343;-32.030;115.880;2023-07-13T13:56:58;8.43;;;0.50;;
72369;SDS011;60343;-32.030;115.880;2023-07-13T13:59:34;6.63;;;0.40;;
72369;SDS011;60343;-32.030;115.880;2023-07-13T14:02:23;6.53;;;0.40;;
72369;SDS011;60343;-32.030;115.880;2023-07-13T14:05:00;6.57;;;0.73;;
72369;SDS011;60343;-32.030;115.880;2023-07-13T14:07:36;6.78;;;0.40;;
72369;SDS011;60343;-32.030;115.880;2023-07-13T14:10:16;5.07;;;0.35;;
72369;SDS011;60343;-32.030;115.880;2023-07-13T14:12:53;5.82;;;0.50;;
72369;SDS011;60343;-32.030;115.880;2023-07-13T14:15:31;4.13;;;0.30;;
72369;SDS011;60343;-32.030;115.880;2023-07-13T14:18:15;3.50;;;0.45;;
72369;SDS011;60343;-32.030;115.880;2023-07-13T14:20:51;3.38;;;0.38;;
72369;SDS011;60343;-32.030;115.880;2023-07-13T14:23:26;2.90;;;0.38;;
72369;SDS011;60343;-32.030;115.880;2023-07-13T14:26:01;3.38;;;0.45;;
72369;SDS011;60343;-32.030;115.880;2023-07-13T14:28:42;2.97;;;0.30;;
72369;SDS011;60343;-32.030;115.880;2023-07-13T14:31:18;1.45;;;0.20;;
72369;SDS011;60343;-32.030;115.880;2023-07-13T14:34:02;1.15;;;0.30;;
72369;SDS011;60343;-32.030;115.880;2023-07-13T14:36:39;2.40;;;0.30;;
72369;SDS011;60343;-32.030;115.880;2023-07-13T14:39:16;3.70;;;0.55;;
72369;SDS011;60343;-32.030;115.880;2023-07-13T14:41:53;4.25;;;0.40;;
72369;SDS011;60343;-32.030;115.880;2023-07-13T14:44:30;1.50;;;0.15;;
72369;SDS011;60343;-32.030;115.880;2023-07-13T14:47:06;4.55;;;0.28;;
72369;SDS011;60343;-32.030;115.880;2023-07-13T14:49:48;3.08;;;0.10;;
72369;SDS011;60343;-32.030;115.880;2023-07-13T14:52:23;4.28;;;0.30;;
72369;SDS011;60343;-32.030;115.880;2023-07-13T14:54:59;3.97;;;0.30;;
72369;SDS011;60343;-32.030;115.880;2023-07-13T14:57:35;2.53;;;0.10;;
72369;SDS011;60343;-32.030;115.880;2023-07-13T15:00:14;2.95;;;0.17;;
72369;SDS011;60343;-32.030;115.880;2023-07-13T15:02:51;2.75;;;0.20;;
72369;SDS011;60343;-32.030;115.880;2023-07-13T15:05:35;2.03;;;0.10;;
72369;SDS011;60343;-32.030;115.880;2023-07-13T15:08:15;3.58;;;0.30;;
72369;SDS011;60343;-32.030;115.880;2023-07-13T15:10:51;1.85;;;0.20;;
72369;SDS011;60343;-32.030;115.880;2023-07-13T15:13:27;2.83;;;0.20;;
72369;SDS011;60343;-32.030;115.880;2023-07-13T15:16:02;1.50;;;0.10;;
72369;SDS011;60343;-32.030;115.880;2023-07-13T15:18:38;3.42;;;0.20;;
72369;SDS011;60343;-32.030;115.880;2023-07-13T15:21:20;1.02;;;0.13;;